This is the latest recevied weather packets stored in our database for station/object IW0REF-8. If no packets are shown the sender has not sent any weather packets the latest 10 day(s).
| Time | Temp. | Humidity | Pressure | Rain* | Wind** | Luminosity | Snow |
|---|---|---|---|---|---|---|---|
| 1777444019 | 18.89° C | 36% | 1020.6 hPa | - | - | - | - |
| 1777443119 | 18.89° C | 36% | 1020.5 hPa | - | - | - | - |
| 1777442219 | 17.22° C | 39% | 1021 hPa | - | - | - | - |
| 1777441318 | 15.56° C | 43% | 1021.4 hPa | - | - | - | - |
| 1777440418 | 13.33° C | 44% | 1021.6 hPa | - | - | - | - |
| 1777439518 | 12.78° C | 44% | 1021.3 hPa | - | - | - | - |
| 1777438618 | 12.22° C | 48% | 1021.6 hPa | - | - | - | - |
| 1777437718 | 10.56° C | 48% | 1021.4 hPa | - | - | - | - |
| 1777436816 | 10° C | 49% | 1021.4 hPa | - | - | - | - |
| 1777435913 | 10° C | 49% | 1021.2 hPa | - | - | - | - |
| 1777435012 | 10° C | 47% | 1020.9 hPa | - | - | - | - |
| 1777434112 | 10.56° C | 46% | 1020.9 hPa | - | - | - | - |
| 1777433212 | 11.11° C | 45% | 1021 hPa | - | - | - | - |
| 1777432312 | 11.11° C | 45% | 1021 hPa | - | - | - | - |
| 1777431412 | 11.11° C | 44% | 1021.1 hPa | - | - | - | - |
| 1777430512 | 11.11° C | 43% | 1020.9 hPa | - | - | - | - |
| 1777429611 | 11.67° C | 42% | 1020.6 hPa | - | - | - | - |
| 1777428711 | 11.67° C | 42% | 1020.7 hPa | - | - | - | - |
| 1777427811 | 11.11° C | 42% | 1020.6 hPa | - | - | - | - |
| 1777426911 | 11.67° C | 41% | 1020.4 hPa | - | - | - | - |
| 1777426010 | 12.22° C | 41% | 1020.4 hPa | - | - | - | - |
| 1777425110 | 12.22° C | 39% | 1020.2 hPa | - | - | - | - |
| 1777424210 | 12.78° C | 40% | 1020.4 hPa | - | - | - | - |
| 1777423310 | 13.33° C | 39% | 1020.3 hPa | - | - | - | - |
| 1777422410 | 13.33° C | 40% | 1020.4 hPa | - | - | - | - |
* Rain since midnight (hover to see other rain measurements)
** Current wind speed in m/s (hover to see current wind gust speed)